sensor_id;sensor_type;location;lat;lon;timestamp;P1;durP1;ratioP1;P2;durP2;ratioP2
21999;SDS011;11164;48.818;2.322;2023-09-08T00:01:56;14.80;;;8.70;;
21999;SDS011;11164;48.818;2.322;2023-09-08T00:04:21;15.98;;;8.30;;
21999;SDS011;11164;48.818;2.322;2023-09-08T00:06:47;14.23;;;8.02;;
21999;SDS011;11164;48.818;2.322;2023-09-08T00:09:13;12.50;;;7.80;;
21999;SDS011;11164;48.818;2.322;2023-09-08T00:11:38;16.27;;;8.57;;
21999;SDS011;11164;48.818;2.322;2023-09-08T00:14:04;16.38;;;8.18;;
21999;SDS011;11164;48.818;2.322;2023-09-08T00:16:29;14.75;;;8.48;;
21999;SDS011;11164;48.818;2.322;2023-09-08T00:18:55;15.65;;;8.82;;
21999;SDS011;11164;48.818;2.322;2023-09-08T00:21:22;13.68;;;8.23;;
21999;SDS011;11164;48.818;2.322;2023-09-08T00:23:47;12.85;;;8.35;;
21999;SDS011;11164;48.818;2.322;2023-09-08T00:26:12;11.80;;;8.03;;
21999;SDS011;11164;48.818;2.322;2023-09-08T00:28:37;13.25;;;8.55;;
21999;SDS011;11164;48.818;2.322;2023-09-08T00:31:03;14.57;;;8.93;;
21999;SDS011;11164;48.818;2.322;2023-09-08T00:33:29;12.45;;;8.10;;
21999;SDS011;11164;48.818;2.322;2023-09-08T00:35:55;12.68;;;8.15;;
21999;SDS011;11164;48.818;2.322;2023-09-08T00:38:22;15.40;;;8.38;;
21999;SDS011;11164;48.818;2.322;2023-09-08T00:40:48;13.02;;;8.43;;
21999;SDS011;11164;48.818;2.322;2023-09-08T00:43:13;10.98;;;8.02;;
21999;SDS011;11164;48.818;2.322;2023-09-08T00:45:40;13.20;;;8.48;;
21999;SDS011;11164;48.818;2.322;2023-09-08T00:48:07;14.10;;;8.27;;
21999;SDS011;11164;48.818;2.322;2023-09-08T00:50:33;13.23;;;8.65;;
21999;SDS011;11164;48.818;2.322;2023-09-08T00:52:59;12.73;;;8.18;;
21999;SDS011;11164;48.818;2.322;2023-09-08T00:55:24;13.00;;;8.65;;
21999;SDS011;11164;48.818;2.322;2023-09-08T00:57:50;13.43;;;9.32;;
21999;SDS011;11164;48.818;2.322;2023-09-08T01:00:15;14.10;;;8.68;;
21999;SDS011;11164;48.818;2.322;2023-09-08T01:02:41;16.90;;;8.45;;
21999;SDS011;11164;48.818;2.322;2023-09-08T01:05:06;13.07;;;8.35;;
21999;SDS011;11164;48.818;2.322;2023-09-08T01:07:31;11.60;;;8.02;;
21999;SDS011;11164;48.818;2.322;2023-09-08T01:09:57;15.05;;;8.77;;
21999;SDS011;11164;48.818;2.322;2023-09-08T01:12:28;11.77;;;8.35;;
21999;SDS011;11164;48.818;2.322;2023-09-08T01:14:54;14.25;;;8.25;;
21999;SDS011;11164;48.818;2.322;2023-09-08T01:17:19;11.70;;;8.30;;
21999;SDS011;11164;48.818;2.322;2023-09-08T01:19:44;13.67;;;8.33;;
21999;SDS011;11164;48.818;2.322;2023-09-08T01:22:20;12.80;;;8.40;;
21999;SDS011;11164;48.818;2.322;2023-09-08T01:27:37;13.13;;;8.63;;
21999;SDS011;11164;48.818;2.322;2023-09-08T01:30:04;14.68;;;8.55;;
21999;SDS011;11164;48.818;2.322;2023-09-08T01:32:31;11.45;;;7.63;;
21999;SDS011;11164;48.818;2.322;2023-09-08T01:34:58;13.70;;;8.18;;
21999;SDS011;11164;48.818;2.322;2023-09-08T01:37:24;12.13;;;8.23;;
21999;SDS011;11164;48.818;2.322;2023-09-08T01:39:50;12.43;;;8.05;;
21999;SDS011;11164;48.818;2.322;2023-09-08T01:42:15;11.38;;;7.35;;
21999;SDS011;11164;48.818;2.322;2023-09-08T01:44:41;14.85;;;7.50;;
21999;SDS011;11164;48.818;2.322;2023-09-08T01:47:06;14.45;;;8.10;;
21999;SDS011;11164;48.818;2.322;2023-09-08T01:49:31;13.02;;;8.20;;
21999;SDS011;11164;48.818;2.322;2023-09-08T01:51:56;11.57;;;7.65;;
21999;SDS011;11164;48.818;2.322;2023-09-08T01:54:22;13.07;;;8.13;;
21999;SDS011;11164;48.818;2.322;2023-09-08T01:56:47;16.13;;;8.13;;
21999;SDS011;11164;48.818;2.322;2023-09-08T01:59:12;13.38;;;7.93;;
21999;SDS011;11164;48.818;2.322;2023-09-08T02:01:38;12.73;;;7.78;;
21999;SDS011;11164;48.818;2.322;2023-09-08T02:04:03;11.05;;;7.65;;
21999;SDS011;11164;48.818;2.322;2023-09-08T02:06:29;13.65;;;7.60;;
21999;SDS011;11164;48.818;2.322;2023-09-08T02:08:54;11.52;;;7.78;;
21999;SDS011;11164;48.818;2.322;2023-09-08T02:11:19;13.52;;;7.68;;
21999;SDS011;11164;48.818;2.322;2023-09-08T02:13:45;10.82;;;7.90;;
21999;SDS011;11164;48.818;2.322;2023-09-08T02:16:16;16.25;;;7.78;;
21999;SDS011;11164;48.818;2.322;2023-09-08T02:18:44;12.07;;;7.65;;
21999;SDS011;11164;48.818;2.322;2023-09-08T02:21:10;14.63;;;7.93;;
21999;SDS011;11164;48.818;2.322;2023-09-08T02:23:36;12.27;;;8.02;;
21999;SDS011;11164;48.818;2.322;2023-09-08T02:26:01;15.02;;;7.88;;
21999;SDS011;11164;48.818;2.322;2023-09-08T02:28:27;13.85;;;8.68;;
21999;SDS011;11164;48.818;2.322;2023-09-08T02:30:53;10.10;;;7.97;;
21999;SDS011;11164;48.818;2.322;2023-09-08T02:33:18;11.73;;;7.78;;
21999;SDS011;11164;48.818;2.322;2023-09-08T02:35:44;13.55;;;8.38;;
21999;SDS011;11164;48.818;2.322;2023-09-08T02:38:09;10.45;;;7.47;;
21999;SDS011;11164;48.818;2.322;2023-09-08T02:40:34;13.57;;;8.27;;
21999;SDS011;11164;48.818;2.322;2023-09-08T02:43:00;11.80;;;7.38;;
21999;SDS011;11164;48.818;2.322;2023-09-08T02:45:26;13.80;;;7.80;;
21999;SDS011;11164;48.818;2.322;2023-09-08T02:47:51;11.60;;;8.15;;
21999;SDS011;11164;48.818;2.322;2023-09-08T02:50:17;13.40;;;7.95;;
21999;SDS011;11164;48.818;2.322;2023-09-08T02:52:42;11.55;;;7.68;;
21999;SDS011;11164;48.818;2.322;2023-09-08T02:55:08;14.90;;;8.00;;
21999;SDS011;11164;48.818;2.322;2023-09-08T02:57:33;12.20;;;7.80;;
21999;SDS011;11164;48.818;2.322;2023-09-08T02:59:58;12.80;;;7.50;;
21999;SDS011;11164;48.818;2.322;2023-09-08T03:02:24;10.60;;;8.00;;
21999;SDS011;11164;48.818;2.322;2023-09-08T03:04:50;11.40;;;7.90;;
21999;SDS011;11164;48.818;2.322;2023-09-08T03:07:16;11.90;;;7.43;;
21999;SDS011;11164;48.818;2.322;2023-09-08T03:09:41;13.43;;;8.30;;
21999;SDS011;11164;48.818;2.322;2023-09-08T03:12:06;13.75;;;7.88;;
21999;SDS011;11164;48.818;2.322;2023-09-08T03:14:32;12.48;;;7.55;;
21999;SDS011;11164;48.818;2.322;2023-09-08T03:16:57;12.13;;;8.07;;
21999;SDS011;11164;48.818;2.322;2023-09-08T03:19:22;10.93;;;7.30;;
21999;SDS011;11164;48.818;2.322;2023-09-08T03:21:48;10.60;;;7.35;;
21999;SDS011;11164;48.818;2.322;2023-09-08T03:24:13;11.33;;;7.30;;
21999;SDS011;11164;48.818;2.322;2023-09-08T03:26:38;10.73;;;7.18;;
21999;SDS011;11164;48.818;2.322;2023-09-08T03:29:05;13.88;;;7.43;;
21999;SDS011;11164;48.818;2.322;2023-09-08T03:31:31;12.32;;;7.00;;
21999;SDS011;11164;48.818;2.322;2023-09-08T03:33:56;13.75;;;7.65;;
21999;SDS011;11164;48.818;2.322;2023-09-08T03:36:22;13.55;;;6.97;;
21999;SDS011;11164;48.818;2.322;2023-09-08T03:38:47;12.73;;;7.73;;
21999;SDS011;11164;48.818;2.322;2023-09-08T03:41:12;14.43;;;7.72;;
21999;SDS011;11164;48.818;2.322;2023-09-08T03:43:38;11.27;;;6.90;;
21999;SDS011;11164;48.818;2.322;2023-09-08T03:46:03;10.82;;;6.50;;
21999;SDS011;11164;48.818;2.322;2023-09-08T03:48:29;12.85;;;7.30;;
21999;SDS011;11164;48.818;2.322;2023-09-08T03:50:54;10.73;;;7.15;;
21999;SDS011;11164;48.818;2.322;2023-09-08T03:53:19;9.10;;;6.65;;
21999;SDS011;11164;48.818;2.322;2023-09-08T03:55:45;11.13;;;7.05;;
21999;SDS011;11164;48.818;2.322;2023-09-08T03:58:10;13.75;;;7.13;;
21999;SDS011;11164;48.818;2.322;2023-09-08T04:00:35;11.40;;;7.10;;
21999;SDS011;11164;48.818;2.322;2023-09-08T04:03:01;10.43;;;7.00;;
21999;SDS011;11164;48.818;2.322;2023-09-08T04:05:27;10.40;;;6.78;;
21999;SDS011;11164;48.818;2.322;2023-09-08T04:07:53;9.93;;;7.00;;
21999;SDS011;11164;48.818;2.322;2023-09-08T04:10:18;9.95;;;7.28;;
21999;SDS011;11164;48.818;2.322;2023-09-08T04:12:44;14.40;;;6.88;;
21999;SDS011;11164;48.818;2.322;2023-09-08T04:15:09;12.10;;;6.80;;
21999;SDS011;11164;48.818;2.322;2023-09-08T04:17:35;14.68;;;6.78;;
21999;SDS011;11164;48.818;2.322;2023-09-08T04:20:01;13.05;;;7.22;;
21999;SDS011;11164;48.818;2.322;2023-09-08T04:22:31;11.57;;;6.85;;
21999;SDS011;11164;48.818;2.322;2023-09-08T04:24:57;15.80;;;7.05;;
21999;SDS011;11164;48.818;2.322;2023-09-08T04:27:23;11.38;;;7.03;;
21999;SDS011;11164;48.818;2.322;2023-09-08T04:29:49;11.52;;;7.10;;
21999;SDS011;11164;48.818;2.322;2023-09-08T04:32:14;12.88;;;6.60;;
21999;SDS011;11164;48.818;2.322;2023-09-08T04:34:40;10.85;;;6.60;;
21999;SDS011;11164;48.818;2.322;2023-09-08T04:37:06;14.88;;;7.38;;
21999;SDS011;11164;48.818;2.322;2023-09-08T04:39:32;11.02;;;6.93;;
21999;SDS011;11164;48.818;2.322;2023-09-08T04:41:58;12.25;;;6.88;;
21999;SDS011;11164;48.818;2.322;2023-09-08T04:44:23;14.02;;;7.85;;
21999;SDS011;11164;48.818;2.322;2023-09-08T04:46:49;12.52;;;6.75;;
21999;SDS011;11164;48.818;2.322;2023-09-08T04:49:14;14.68;;;7.40;;
21999;SDS011;11164;48.818;2.322;2023-09-08T04:51:40;13.95;;;7.38;;
21999;SDS011;11164;48.818;2.322;2023-09-08T04:54:05;13.20;;;7.55;;
21999;SDS011;11164;48.818;2.322;2023-09-08T04:56:30;11.48;;;7.20;;
21999;SDS011;11164;48.818;2.322;2023-09-08T04:58:56;12.82;;;6.95;;
21999;SDS011;11164;48.818;2.322;2023-09-08T05:01:22;19.52;;;7.70;;
21999;SDS011;11164;48.818;2.322;2023-09-08T05:03:48;14.82;;;6.80;;
21999;SDS011;11164;48.818;2.322;2023-09-08T05:06:13;14.13;;;7.05;;
21999;SDS011;11164;48.818;2.322;2023-09-08T05:08:39;12.18;;;7.20;;
21999;SDS011;11164;48.818;2.322;2023-09-08T05:11:04;18.13;;;7.88;;
21999;SDS011;11164;48.818;2.322;2023-09-08T05:13:30;14.85;;;7.72;;
21999;SDS011;11164;48.818;2.322;2023-09-08T05:15:55;17.52;;;7.28;;
21999;SDS011;11164;48.818;2.322;2023-09-08T05:18:28;14.07;;;7.88;;
21999;SDS011;11164;48.818;2.322;2023-09-08T05:20:53;17.80;;;8.02;;
21999;SDS011;11164;48.818;2.322;2023-09-08T05:23:19;20.80;;;7.80;;
21999;SDS011;11164;48.818;2.322;2023-09-08T05:25:44;13.68;;;7.15;;
21999;SDS011;11164;48.818;2.322;2023-09-08T05:28:10;16.42;;;7.95;;
21999;SDS011;11164;48.818;2.322;2023-09-08T05:30:35;14.18;;;7.70;;
21999;SDS011;11164;48.818;2.322;2023-09-08T05:33:01;12.65;;;8.00;;
21999;SDS011;11164;48.818;2.322;2023-09-08T05:35:26;16.73;;;8.07;;
21999;SDS011;11164;48.818;2.322;2023-09-08T05:37:52;21.10;;;8.05;;
21999;SDS011;11164;48.818;2.322;2023-09-08T05:40:17;11.23;;;7.78;;
21999;SDS011;11164;48.818;2.322;2023-09-08T05:42:43;12.05;;;7.15;;
21999;SDS011;11164;48.818;2.322;2023-09-08T05:45:09;14.02;;;7.75;;
21999;SDS011;11164;48.818;2.322;2023-09-08T05:47:34;14.93;;;7.80;;
21999;SDS011;11164;48.818;2.322;2023-09-08T05:50:01;17.13;;;8.02;;
21999;SDS011;11164;48.818;2.322;2023-09-08T05:52:26;19.02;;;8.52;;
21999;SDS011;11164;48.818;2.322;2023-09-08T05:54:53;15.25;;;8.10;;
21999;SDS011;11164;48.818;2.322;2023-09-08T05:57:18;16.15;;;8.13;;
21999;SDS011;11164;48.818;2.322;2023-09-08T05:59:44;14.48;;;7.78;;
21999;SDS011;11164;48.818;2.322;2023-09-08T06:02:09;17.38;;;8.38;;
21999;SDS011;11164;48.818;2.322;2023-09-08T06:04:34;18.05;;;8.77;;
21999;SDS011;11164;48.818;2.322;2023-09-08T06:07:00;15.63;;;7.90;;
21999;SDS011;11164;48.818;2.322;2023-09-08T06:09:25;15.40;;;8.13;;
21999;SDS011;11164;48.818;2.322;2023-09-08T06:11:50;19.08;;;8.68;;
21999;SDS011;11164;48.818;2.322;2023-09-08T06:14:16;15.82;;;8.43;;
21999;SDS011;11164;48.818;2.322;2023-09-08T06:16:41;17.40;;;8.85;;
21999;SDS011;11164;48.818;2.322;2023-09-08T06:19:06;19.83;;;8.27;;
21999;SDS011;11164;48.818;2.322;2023-09-08T06:21:32;13.75;;;8.45;;
21999;SDS011;11164;48.818;2.322;2023-09-08T06:23:57;13.52;;;8.07;;
21999;SDS011;11164;48.818;2.322;2023-09-08T06:26:23;15.32;;;8.60;;
21999;SDS011;11164;48.818;2.322;2023-09-08T06:28:48;18.10;;;8.07;;
21999;SDS011;11164;48.818;2.322;2023-09-08T06:31:13;16.08;;;8.07;;
21999;SDS011;11164;48.818;2.322;2023-09-08T06:33:40;15.52;;;8.85;;
21999;SDS011;11164;48.818;2.322;2023-09-08T06:36:05;19.98;;;8.13;;
21999;SDS011;11164;48.818;2.322;2023-09-08T06:38:32;16.02;;;8.05;;
21999;SDS011;11164;48.818;2.322;2023-09-08T06:40:57;25.10;;;8.20;;
21999;SDS011;11164;48.818;2.322;2023-09-08T06:43:23;17.27;;;7.90;;
21999;SDS011;11164;48.818;2.322;2023-09-08T06:45:48;14.45;;;8.35;;
21999;SDS011;11164;48.818;2.322;2023-09-08T06:48:14;23.10;;;8.93;;
21999;SDS011;11164;48.818;2.322;2023-09-08T06:50:40;20.40;;;9.27;;
21999;SDS011;11164;48.818;2.322;2023-09-08T06:53:05;29.15;;;10.20;;
21999;SDS011;11164;48.818;2.322;2023-09-08T06:55:31;28.30;;;9.27;;
21999;SDS011;11164;48.818;2.322;2023-09-08T06:57:56;21.60;;;8.95;;
21999;SDS011;11164;48.818;2.322;2023-09-08T07:00:22;18.02;;;8.10;;
21999;SDS011;11164;48.818;2.322;2023-09-08T07:02:47;20.95;;;7.43;;
21999;SDS011;11164;48.818;2.322;2023-09-08T07:05:14;24.52;;;7.85;;
21999;SDS011;11164;48.818;2.322;2023-09-08T07:07:41;17.85;;;7.30;;
21999;SDS011;11164;48.818;2.322;2023-09-08T07:10:07;16.63;;;7.68;;
21999;SDS011;11164;48.818;2.322;2023-09-08T07:12:33;16.00;;;7.20;;
21999;SDS011;11164;48.818;2.322;2023-09-08T07:14:59;16.77;;;6.82;;
21999;SDS011;11164;48.818;2.322;2023-09-08T07:17:25;18.33;;;7.05;;
21999;SDS011;11164;48.818;2.322;2023-09-08T07:19:50;18.73;;;7.35;;
21999;SDS011;11164;48.818;2.322;2023-09-08T07:22:16;19.48;;;6.97;;
21999;SDS011;11164;48.818;2.322;2023-09-08T07:24:41;21.05;;;6.82;;
21999;SDS011;11164;48.818;2.322;2023-09-08T07:27:07;14.32;;;5.60;;
21999;SDS011;11164;48.818;2.322;2023-09-08T07:29:32;23.95;;;6.32;;
21999;SDS011;11164;48.818;2.322;2023-09-08T07:31:58;15.80;;;6.22;;
21999;SDS011;11164;48.818;2.322;2023-09-08T07:34:23;18.10;;;6.00;;
21999;SDS011;11164;48.818;2.322;2023-09-08T07:36:49;13.27;;;7.00;;
21999;SDS011;11164;48.818;2.322;2023-09-08T07:39:14;16.65;;;6.28;;
21999;SDS011;11164;48.818;2.322;2023-09-08T07:41:39;21.55;;;6.97;;
21999;SDS011;11164;48.818;2.322;2023-09-08T07:44:05;16.55;;;6.32;;
21999;SDS011;11164;48.818;2.322;2023-09-08T07:46:31;14.15;;;6.07;;
21999;SDS011;11164;48.818;2.322;2023-09-08T07:49:00;16.55;;;6.65;;
21999;SDS011;11164;48.818;2.322;2023-09-08T07:51:26;19.60;;;6.40;;
21999;SDS011;11164;48.818;2.322;2023-09-08T07:53:55;22.85;;;6.65;;
21999;SDS011;11164;48.818;2.322;2023-09-08T07:56:21;14.38;;;6.28;;
21999;SDS011;11164;48.818;2.322;2023-09-08T07:58:46;19.83;;;6.75;;
21999;SDS011;11164;48.818;2.322;2023-09-08T08:01:12;19.77;;;6.45;;
21999;SDS011;11164;48.818;2.322;2023-09-08T08:03:38;17.77;;;6.63;;
21999;SDS011;11164;48.818;2.322;2023-09-08T08:06:03;13.30;;;6.30;;
21999;SDS011;11164;48.818;2.322;2023-09-08T08:08:28;17.40;;;7.03;;
21999;SDS011;11164;48.818;2.322;2023-09-08T08:10:54;30.45;;;14.65;;
21999;SDS011;11164;48.818;2.322;2023-09-08T08:13:20;19.25;;;7.20;;
21999;SDS011;11164;48.818;2.322;2023-09-08T08:15:45;18.33;;;6.82;;
21999;SDS011;11164;48.818;2.322;2023-09-08T08:18:12;16.77;;;6.40;;
21999;SDS011;11164;48.818;2.322;2023-09-08T08:20:38;16.65;;;6.50;;
21999;SDS011;11164;48.818;2.322;2023-09-08T08:23:04;19.48;;;6.65;;
21999;SDS011;11164;48.818;2.322;2023-09-08T08:25:30;17.73;;;7.25;;
21999;SDS011;11164;48.818;2.322;2023-09-08T08:27:56;22.45;;;7.00;;
21999;SDS011;11164;48.818;2.322;2023-09-08T08:30:23;20.55;;;6.78;;
21999;SDS011;11164;48.818;2.322;2023-09-08T08:32:48;26.65;;;7.00;;
21999;SDS011;11164;48.818;2.322;2023-09-08T08:35:16;23.15;;;7.88;;
21999;SDS011;11164;48.818;2.322;2023-09-08T08:37:41;19.25;;;7.32;;
21999;SDS011;11164;48.818;2.322;2023-09-08T08:40:08;19.33;;;6.50;;
21999;SDS011;11164;48.818;2.322;2023-09-08T08:42:36;18.70;;;6.63;;
21999;SDS011;11164;48.818;2.322;2023-09-08T08:45:01;19.27;;;7.05;;
21999;SDS011;11164;48.818;2.322;2023-09-08T08:47:28;21.50;;;6.90;;
21999;SDS011;11164;48.818;2.322;2023-09-08T08:49:55;15.55;;;6.57;;
21999;SDS011;11164;48.818;2.322;2023-09-08T08:52:23;15.05;;;6.32;;
21999;SDS011;11164;48.818;2.322;2023-09-08T08:54:50;16.70;;;6.00;;
21999;SDS011;11164;48.818;2.322;2023-09-08T08:57:15;17.27;;;5.90;;
21999;SDS011;11164;48.818;2.322;2023-09-08T08:59:41;19.88;;;5.88;;
21999;SDS011;11164;48.818;2.322;2023-09-08T09:02:07;21.60;;;6.85;;
21999;SDS011;11164;48.818;2.322;2023-09-08T09:04:34;16.98;;;5.70;;
21999;SDS011;11164;48.818;2.322;2023-09-08T09:07:02;13.60;;;4.68;;
21999;SDS011;11164;48.818;2.322;2023-09-08T09:09:29;12.60;;;5.20;;
21999;SDS011;11164;48.818;2.322;2023-09-08T09:11:54;9.05;;;4.45;;
21999;SDS011;11164;48.818;2.322;2023-09-08T09:14:20;13.43;;;6.65;;
21999;SDS011;11164;48.818;2.322;2023-09-08T09:16:45;12.88;;;4.60;;
21999;SDS011;11164;48.818;2.322;2023-09-08T09:19:19;14.40;;;5.38;;
21999;SDS011;11164;48.818;2.322;2023-09-08T09:21:52;12.13;;;5.03;;
21999;SDS011;11164;48.818;2.322;2023-09-08T09:26:59;11.20;;;4.70;;
21999;SDS011;11164;48.818;2.322;2023-09-08T09:29:26;13.77;;;4.68;;
21999;SDS011;11164;48.818;2.322;2023-09-08T09:34:18;14.55;;;5.20;;
21999;SDS011;11164;48.818;2.322;2023-09-08T09:36:45;16.20;;;5.20;;
21999;SDS011;11164;48.818;2.322;2023-09-08T09:39:11;10.90;;;4.80;;
21999;SDS011;11164;48.818;2.322;2023-09-08T09:41:37;11.50;;;4.80;;
21999;SDS011;11164;48.818;2.322;2023-09-08T09:44:03;12.65;;;4.90;;
21999;SDS011;11164;48.818;2.322;2023-09-08T09:46:28;10.13;;;4.88;;
21999;SDS011;11164;48.818;2.322;2023-09-08T09:48:54;12.60;;;4.82;;
21999;SDS011;11164;48.818;2.322;2023-09-08T09:51:21;11.25;;;4.85;;
21999;SDS011;11164;48.818;2.322;2023-09-08T09:53:47;14.77;;;5.22;;
21999;SDS011;11164;48.818;2.322;2023-09-08T09:56:15;17.20;;;7.38;;
21999;SDS011;11164;48.818;2.322;2023-09-08T09:58:42;16.70;;;5.90;;
21999;SDS011;11164;48.818;2.322;2023-09-08T10:01:08;11.60;;;5.18;;
21999;SDS011;11164;48.818;2.322;2023-09-08T10:03:37;18.23;;;5.82;;
21999;SDS011;11164;48.818;2.322;2023-09-08T10:06:04;13.18;;;5.07;;
21999;SDS011;11164;48.818;2.322;2023-09-08T10:08:31;9.63;;;5.22;;
21999;SDS011;11164;48.818;2.322;2023-09-08T10:11:01;14.48;;;5.53;;
21999;SDS011;11164;48.818;2.322;2023-09-08T10:13:31;18.02;;;5.20;;
21999;SDS011;11164;48.818;2.322;2023-09-08T10:16:03;10.47;;;5.43;;
21999;SDS011;11164;48.818;2.322;2023-09-08T10:18:30;19.65;;;5.80;;
21999;SDS011;11164;48.818;2.322;2023-09-08T10:20:59;15.48;;;5.57;;
21999;SDS011;11164;48.818;2.322;2023-09-08T10:23:33;11.00;;;5.03;;
21999;SDS011;11164;48.818;2.322;2023-09-08T10:26:06;13.18;;;4.97;;
21999;SDS011;11164;48.818;2.322;2023-09-08T10:28:37;11.75;;;5.47;;
21999;SDS011;11164;48.818;2.322;2023-09-08T10:31:03;38.90;;;28.05;;
21999;SDS011;11164;48.818;2.322;2023-09-08T10:33:32;37.28;;;26.02;;
21999;SDS011;11164;48.818;2.322;2023-09-08T10:35:59;15.90;;;5.30;;
21999;SDS011;11164;48.818;2.322;2023-09-08T10:38:30;11.63;;;4.90;;
21999;SDS011;11164;48.818;2.322;2023-09-08T10:43:45;11.30;;;5.30;;
21999;SDS011;11164;48.818;2.322;2023-09-08T10:46:20;15.32;;;5.13;;
21999;SDS011;11164;48.818;2.322;2023-09-08T10:48:46;8.77;;;4.40;;
21999;SDS011;11164;48.818;2.322;2023-09-08T10:51:12;13.52;;;4.78;;
21999;SDS011;11164;48.818;2.322;2023-09-08T10:53:39;9.40;;;5.00;;
21999;SDS011;11164;48.818;2.322;2023-09-08T10:56:04;15.27;;;5.13;;
21999;SDS011;11164;48.818;2.322;2023-09-08T10:58:31;10.90;;;4.38;;
21999;SDS011;11164;48.818;2.322;2023-09-08T11:01:13;14.35;;;4.70;;
21999;SDS011;11164;48.818;2.322;2023-09-08T11:06:07;10.80;;;5.37;;
21999;SDS011;11164;48.818;2.322;2023-09-08T11:08:34;11.05;;;4.60;;
21999;SDS011;11164;48.818;2.322;2023-09-08T11:11:03;12.68;;;4.97;;
21999;SDS011;11164;48.818;2.322;2023-09-08T11:13:28;11.45;;;4.70;;
21999;SDS011;11164;48.818;2.322;2023-09-08T11:15:54;10.75;;;4.10;;
21999;SDS011;11164;48.818;2.322;2023-09-08T11:18:26;14.02;;;4.97;;
21999;SDS011;11164;48.818;2.322;2023-09-08T11:20:52;18.50;;;4.90;;
21999;SDS011;11164;48.818;2.322;2023-09-08T11:23:18;11.07;;;4.43;;
21999;SDS011;11164;48.818;2.322;2023-09-08T11:25:45;11.70;;;4.40;;
21999;SDS011;11164;48.818;2.322;2023-09-08T11:28:11;10.70;;;4.90;;
21999;SDS011;11164;48.818;2.322;2023-09-08T11:30:36;12.70;;;4.28;;
21999;SDS011;11164;48.818;2.322;2023-09-08T11:33:02;11.57;;;4.15;;
21999;SDS011;11164;48.818;2.322;2023-09-08T11:35:31;11.23;;;3.95;;
21999;SDS011;11164;48.818;2.322;2023-09-08T11:38:00;12.32;;;4.35;;
21999;SDS011;11164;48.818;2.322;2023-09-08T11:40:27;13.73;;;4.10;;
21999;SDS011;11164;48.818;2.322;2023-09-08T11:42:53;10.93;;;4.63;;
21999;SDS011;11164;48.818;2.322;2023-09-08T11:45:18;12.27;;;4.40;;
21999;SDS011;11164;48.818;2.322;2023-09-08T11:47:46;8.02;;;3.67;;
21999;SDS011;11164;48.818;2.322;2023-09-08T11:50:14;13.05;;;4.00;;
21999;SDS011;11164;48.818;2.322;2023-09-08T11:52:47;11.55;;;4.30;;
21999;SDS011;11164;48.818;2.322;2023-09-08T11:55:13;11.10;;;3.88;;
21999;SDS011;11164;48.818;2.322;2023-09-08T11:57:40;10.00;;;4.18;;
21999;SDS011;11164;48.818;2.322;2023-09-08T12:00:06;11.80;;;4.47;;
21999;SDS011;11164;48.818;2.322;2023-09-08T12:02:36;10.18;;;4.30;;
21999;SDS011;11164;48.818;2.322;2023-09-08T12:05:02;11.38;;;3.95;;
21999;SDS011;11164;48.818;2.322;2023-09-08T12:07:28;13.38;;;3.72;;
21999;SDS011;11164;48.818;2.322;2023-09-08T12:09:54;8.52;;;3.85;;
21999;SDS011;11164;48.818;2.322;2023-09-08T12:12:19;13.35;;;4.57;;
21999;SDS011;11164;48.818;2.322;2023-09-08T12:14:46;12.00;;;4.55;;
21999;SDS011;11164;48.818;2.322;2023-09-08T12:17:11;15.35;;;4.65;;
21999;SDS011;11164;48.818;2.322;2023-09-08T12:19:41;10.23;;;3.80;;
21999;SDS011;11164;48.818;2.322;2023-09-08T12:22:07;10.95;;;3.97;;
21999;SDS011;11164;48.818;2.322;2023-09-08T12:27:23;10.25;;;4.28;;
21999;SDS011;11164;48.818;2.322;2023-09-08T12:30:00;14.10;;;5.22;;
21999;SDS011;11164;48.818;2.322;2023-09-08T12:32:28;11.98;;;4.22;;
21999;SDS011;11164;48.818;2.322;2023-09-08T12:34:54;12.02;;;4.10;;
21999;SDS011;11164;48.818;2.322;2023-09-08T12:37:24;9.07;;;5.22;;
21999;SDS011;11164;48.818;2.322;2023-09-08T12:39:52;16.43;;;5.73;;
21999;SDS011;11164;48.818;2.322;2023-09-08T12:42:18;9.82;;;4.30;;
21999;SDS011;11164;48.818;2.322;2023-09-08T12:44:44;11.15;;;4.03;;
21999;SDS011;11164;48.818;2.322;2023-09-08T12:47:11;11.30;;;5.55;;
21999;SDS011;11164;48.818;2.322;2023-09-08T12:49:39;8.27;;;4.30;;
21999;SDS011;11164;48.818;2.322;2023-09-08T12:52:04;11.85;;;6.25;;
21999;SDS011;11164;48.818;2.322;2023-09-08T12:54:30;7.72;;;4.65;;
21999;SDS011;11164;48.818;2.322;2023-09-08T12:56:55;11.68;;;5.38;;
21999;SDS011;11164;48.818;2.322;2023-09-08T12:59:20;9.73;;;4.33;;
21999;SDS011;11164;48.818;2.322;2023-09-08T13:01:46;10.33;;;4.17;;
21999;SDS011;11164;48.818;2.322;2023-09-08T13:04:11;12.68;;;5.35;;
21999;SDS011;11164;48.818;2.322;2023-09-08T13:06:36;13.55;;;6.10;;
21999;SDS011;11164;48.818;2.322;2023-09-08T13:09:02;10.93;;;4.05;;
21999;SDS011;11164;48.818;2.322;2023-09-08T13:11:27;12.88;;;4.55;;
21999;SDS011;11164;48.818;2.322;2023-09-08T13:13:54;12.77;;;5.00;;
21999;SDS011;11164;48.818;2.322;2023-09-08T13:16:20;12.00;;;4.33;;
21999;SDS011;11164;48.818;2.322;2023-09-08T13:18:45;11.10;;;8.50;;
21999;SDS011;11164;48.818;2.322;2023-09-08T13:21:11;11.40;;;4.10;;
21999;SDS011;11164;48.818;2.322;2023-09-08T13:23:36;10.90;;;4.07;;
21999;SDS011;11164;48.818;2.322;2023-09-08T13:26:02;6.45;;;4.15;;
21999;SDS011;11164;48.818;2.322;2023-09-08T13:28:27;6.78;;;3.58;;
21999;SDS011;11164;48.818;2.322;2023-09-08T13:30:52;8.10;;;3.67;;
21999;SDS011;11164;48.818;2.322;2023-09-08T13:33:18;10.77;;;3.73;;
21999;SDS011;11164;48.818;2.322;2023-09-08T13:35:43;8.13;;;4.40;;
21999;SDS011;11164;48.818;2.322;2023-09-08T13:38:08;8.47;;;4.10;;
21999;SDS011;11164;48.818;2.322;2023-09-08T13:40:34;11.13;;;3.90;;
21999;SDS011;11164;48.818;2.322;2023-09-08T13:42:59;12.03;;;4.30;;
21999;SDS011;11164;48.818;2.322;2023-09-08T13:45:25;5.97;;;3.97;;
21999;SDS011;11164;48.818;2.322;2023-09-08T13:47:50;8.52;;;3.90;;
21999;SDS011;11164;48.818;2.322;2023-09-08T13:50:16;7.23;;;4.00;;
21999;SDS011;11164;48.818;2.322;2023-09-08T13:52:41;10.75;;;4.20;;
21999;SDS011;11164;48.818;2.322;2023-09-08T13:55:08;9.18;;;3.85;;
21999;SDS011;11164;48.818;2.322;2023-09-08T13:57:35;11.32;;;4.57;;
21999;SDS011;11164;48.818;2.322;2023-09-08T14:00:01;13.80;;;5.57;;
21999;SDS011;11164;48.818;2.322;2023-09-08T14:02:27;8.52;;;4.25;;
21999;SDS011;11164;48.818;2.322;2023-09-08T14:04:52;7.90;;;3.83;;
21999;SDS011;11164;48.818;2.322;2023-09-08T14:07:18;8.50;;;4.47;;
21999;SDS011;11164;48.818;2.322;2023-09-08T14:09:43;7.72;;;4.20;;
21999;SDS011;11164;48.818;2.322;2023-09-08T14:12:08;9.00;;;4.40;;
21999;SDS011;11164;48.818;2.322;2023-09-08T14:14:34;12.85;;;4.95;;
21999;SDS011;11164;48.818;2.322;2023-09-08T14:16:59;10.87;;;4.20;;
21999;SDS011;11164;48.818;2.322;2023-09-08T14:19:25;10.15;;;4.65;;
21999;SDS011;11164;48.818;2.322;2023-09-08T14:21:50;10.70;;;4.90;;
21999;SDS011;11164;48.818;2.322;2023-09-08T14:24:15;9.55;;;4.85;;
21999;SDS011;11164;48.818;2.322;2023-09-08T14:26:41;9.32;;;4.65;;
21999;SDS011;11164;48.818;2.322;2023-09-08T14:29:06;8.45;;;4.43;;
21999;SDS011;11164;48.818;2.322;2023-09-08T14:31:31;9.43;;;5.13;;
21999;SDS011;11164;48.818;2.322;2023-09-08T14:33:57;7.32;;;5.10;;
21999;SDS011;11164;48.818;2.322;2023-09-08T14:36:23;11.07;;;4.68;;
21999;SDS011;11164;48.818;2.322;2023-09-08T14:38:49;9.10;;;6.07;;
21999;SDS011;11164;48.818;2.322;2023-09-08T14:41:15;13.27;;;5.20;;
21999;SDS011;11164;48.818;2.322;2023-09-08T14:43:40;8.52;;;4.65;;
21999;SDS011;11164;48.818;2.322;2023-09-08T14:46:06;8.32;;;5.03;;